Time;durP1;ratioP1;P1;durP2;ratioP2;P2;SDS_P1;SDS_P2;PMS_P1;PMS_P2;Temp;Humidity;BMP_temperature;BMP_pressure;BME280_temperature;BME280_humidity;BME280_pressure;Samples;Min_cycle;Max_cycle;Signal;HPM_P1;HPM_P2
2023/11/28 00:02:18;;;;;;;9.13;6.43;;;4.00;99.90;;;;;;4995647;28;20018;-83
2023/11/28 00:04:43;;;;;;;9.07;6.47;;;4.00;99.90;;;;;;5022175;28;20030;-83
2023/11/28 00:07:09;;;;;;;8.67;6.93;;;4.00;99.90;;;;;;5019410;28;20088;-82
2023/11/28 00:09:35;;;;;;;12.70;8.63;;;4.00;99.90;;;;;;5024245;28;20124;-82
2023/11/28 00:12:00;;;;;;;11.50;8.73;;;4.00;99.90;;;;;;5022547;28;20034;-82
2023/11/28 00:14:26;;;;;;;12.33;8.37;;;4.00;99.90;;;;;;5025834;28;20018;-82
2023/11/28 00:16:53;;;;;;;12.87;8.67;;;3.90;99.90;;;;;;5029255;28;20026;-84
2023/11/28 00:19:19;;;;;;;12.77;8.37;;;3.90;99.90;;;;;;5032989;28;20029;-82
2023/11/28 00:21:45;;;;;;;11.47;8.20;;;3.90;99.90;;;;;;5030269;28;20052;-82
2023/11/28 00:24:11;;;;;;;13.10;9.07;;;3.90;99.90;;;;;;5013887;28;20439;-82
2023/11/28 00:26:37;;;;;;;11.27;8.33;;;3.90;99.90;;;;;;5038438;28;20021;-82
2023/11/28 00:29:03;;;;;;;10.83;7.67;;;3.90;99.90;;;;;;5035801;28;20063;-82
2023/11/28 00:31:30;;;;;;;11.40;7.87;;;4.00;99.90;;;;;;5033241;28;20055;-82
2023/11/28 00:33:56;;;;;;;11.40;7.63;;;3.90;99.90;;;;;;5028968;28;20486;-82
2023/11/28 00:36:21;;;;;;;10.93;7.47;;;3.90;99.90;;;;;;5033550;28;20030;-82
2023/11/28 00:38:47;;;;;;;12.20;8.07;;;3.90;99.90;;;;;;5010169;28;20022;-82
2023/11/28 00:41:13;;;;;;;10.07;6.90;;;3.90;99.90;;;;;;5021914;28;20391;-82
2023/11/28 00:43:39;;;;;;;9.43;6.63;;;3.90;99.90;;;;;;5023731;28;20025;-82
2023/11/28 00:46:05;;;;;;;8.43;5.87;;;3.90;99.90;;;;;;5030823;28;20089;-81
2023/11/28 00:48:30;;;;;;;8.50;5.57;;;3.80;99.90;;;;;;5022798;28;20024;-82
2023/11/28 00:50:56;;;;;;;9.60;5.53;;;3.80;99.90;;;;;;5045800;28;20049;-82
2023/11/28 00:53:23;;;;;;;9.07;5.70;;;3.80;99.90;;;;;;5021735;28;20303;-81
2023/11/28 00:55:49;;;;;;;9.97;6.87;;;3.80;99.90;;;;;;5021161;28;20037;-81
2023/11/28 00:58:14;;;;;;;9.30;6.30;;;3.80;99.90;;;;;;5021865;28;20037;-81
2023/11/28 01:00:40;;;;;;;10.57;6.47;;;3.80;99.90;;;;;;5019781;28;20029;-81
2023/11/28 01:03:06;;;;;;;9.70;6.30;;;3.80;99.90;;;;;;5022011;28;20095;-82
2023/11/28 01:05:31;;;;;;;10.97;6.73;;;3.80;99.90;;;;;;5022983;28;20025;-80
2023/11/28 01:07:57;;;;;;;10.73;7.20;;;3.70;99.90;;;;;;5023056;28;20029;-81
2023/11/28 01:10:22;;;;;;;10.33;7.03;;;3.70;99.90;;;;;;5024113;28;20042;-80
2023/11/28 01:12:50;;;;;;;8.97;5.63;;;3.70;99.90;;;;;;5022209;28;20395;-82
2023/11/28 01:15:18;;;;;;;9.30;6.00;;;3.70;99.90;;;;;;5020199;28;20044;-82
2023/11/28 01:17:43;;;;;;;9.33;5.90;;;3.70;99.90;;;;;;5032631;28;20051;-82
2023/11/28 01:20:11;;;;;;;10.33;6.70;;;3.70;99.90;;;;;;5014059;28;20788;-82
2023/11/28 01:22:36;;;;;;;9.37;6.00;;;3.70;99.90;;;;;;5008212;28;20054;-81
2023/11/28 01:25:03;;;;;;;7.97;4.97;;;3.70;99.90;;;;;;5019614;28;20064;-81
2023/11/28 01:27:29;;;;;;;8.93;4.80;;;3.70;99.90;;;;;;5032223;28;21091;-81
2023/11/28 01:29:54;;;;;;;9.77;6.03;;;3.80;99.90;;;;;;5028802;28;20025;-83
2023/11/28 01:32:20;;;;;;;8.47;5.87;;;3.60;99.90;;;;;;4999218;28;20026;-83
2023/11/28 01:34:46;;;;;;;8.80;5.70;;;3.80;99.90;;;;;;5020652;28;20112;-81
2023/11/28 01:37:13;;;;;;;10.10;6.23;;;3.70;99.90;;;;;;5046078;28;20029;-81
2023/11/28 01:39:39;;;;;;;10.30;6.70;;;3.70;99.90;;;;;;5022360;28;20027;-83
2023/11/28 01:42:05;;;;;;;11.20;7.80;;;3.70;99.90;;;;;;5030457;28;20057;-82
2023/11/28 01:44:31;;;;;;;10.10;6.23;;;3.70;99.90;;;;;;5023014;28;20466;-81
2023/11/28 01:46:57;;;;;;;9.80;6.90;;;3.70;99.90;;;;;;5021843;28;20033;-81
2023/11/28 01:49:23;;;;;;;11.47;7.30;;;3.70;99.90;;;;;;4997783;28;20048;-81
2023/11/28 01:51:48;;;;;;;10.27;6.47;;;3.70;99.90;;;;;;5018990;28;20041;-81
2023/11/28 01:54:15;;;;;;;11.17;6.43;;;3.70;99.90;;;;;;5023818;28;20037;-82
2023/11/28 01:56:43;;;;;;;10.00;6.17;;;3.60;99.90;;;;;;5025103;28;20032;-82
2023/11/28 01:59:09;;;;;;;10.57;6.27;;;3.60;99.90;;;;;;5031250;28;20386;-82
2023/11/28 02:01:34;;;;;;;8.70;5.70;;;3.60;99.90;;;;;;5036318;28;20057;-81
2023/11/28 02:04:00;;;;;;;8.87;5.50;;;3.60;99.90;;;;;;5019414;28;20541;-81
2023/11/28 02:06:26;;;;;;;10.00;6.17;;;3.60;99.90;;;;;;5031924;28;20021;-81
2023/11/28 02:08:52;;;;;;;11.17;6.93;;;3.60;99.90;;;;;;5018573;28;20026;-82
2023/11/28 02:11:18;;;;;;;9.83;6.33;;;3.50;99.90;;;;;;5047848;28;20053;-82
2023/11/28 02:13:43;;;;;;;11.00;6.47;;;3.50;99.90;;;;;;5023308;28;20088;-82
2023/11/28 02:16:14;;;;;;;8.83;5.93;;;3.50;99.90;;;;;;5028929;28;20129;-82
2023/11/28 02:18:41;;;;;;;9.17;6.20;;;3.50;99.90;;;;;;5012192;28;20490;-82
2023/11/28 02:21:09;;;;;;;10.20;6.57;;;3.50;99.90;;;;;;5021842;28;20014;-82
2023/11/28 02:23:35;;;;;;;10.83;6.07;;;3.40;99.90;;;;;;5030871;28;20014;-83
2023/11/28 02:26:13;;;;;;;8.43;5.93;;;3.40;99.90;;;;;;5030131;28;20038;-81
2023/11/28 02:28:38;;;;;;;11.00;7.00;;;3.40;99.90;;;;;;5020081;28;20029;-82
2023/11/28 02:31:05;;;;;;;11.27;6.20;;;3.40;99.90;;;;;;4997626;28;20037;-81
2023/11/28 02:33:31;;;;;;;12.13;6.60;;;3.40;99.90;;;;;;5019431;28;20472;-82
2023/11/28 02:35:56;;;;;;;10.13;6.93;;;3.40;99.90;;;;;;5046163;28;20032;-81
2023/11/28 02:38:22;;;;;;;11.87;7.23;;;3.40;99.90;;;;;;5004155;28;20022;-81
2023/11/28 02:40:48;;;;;;;10.40;7.03;;;3.50;99.90;;;;;;5032566;28;20030;-82
2023/11/28 02:43:16;;;;;;;12.07;7.43;;;3.40;99.90;;;;;;5017729;28;20033;-81
2023/11/28 02:45:44;;;;;;;11.67;8.10;;;3.40;99.90;;;;;;5032455;28;20081;-81
2023/11/28 02:48:10;;;;;;;14.30;9.10;;;3.40;99.90;;;;;;5028887;28;20079;-82
2023/11/28 02:50:37;;;;;;;10.00;6.97;;;3.40;99.90;;;;;;5031873;28;20475;-82
2023/11/28 02:53:03;;;;;;;12.60;8.23;;;3.40;99.90;;;;;;5035681;28;20105;-81
2023/11/28 02:55:29;;;;;;;14.60;8.73;;;3.40;99.90;;;;;;5024339;28;20045;-82
2023/11/28 02:57:57;;;;;;;11.77;8.37;;;3.40;99.90;;;;;;5026987;28;20052;-82
2023/11/28 03:00:23;;;;;;;14.17;9.50;;;3.40;99.90;;;;;;5024329;28;20490;-82
2023/11/28 03:02:48;;;;;;;13.17;9.60;;;3.40;99.90;;;;;;5013187;28;20041;-82
2023/11/28 03:05:14;;;;;;;13.00;9.03;;;3.40;99.90;;;;;;5024240;28;20025;-82
2023/11/28 03:07:39;;;;;;;16.10;9.23;;;3.40;99.90;;;;;;5036018;28;20018;-83
2023/11/28 03:10:05;;;;;;;14.50;9.27;;;3.30;99.90;;;;;;5025526;28;20048;-82
2023/11/28 03:12:31;;;;;;;13.77;9.10;;;3.40;99.90;;;;;;5021637;28;20029;-82
2023/11/28 03:14:57;;;;;;;15.10;9.77;;;3.30;99.90;;;;;;5034544;28;20108;-82
2023/11/28 03:17:23;;;;;;;12.57;8.13;;;3.30;99.90;;;;;;5032105;28;20085;-83
2023/11/28 03:19:49;;;;;;;12.63;8.13;;;3.30;99.90;;;;;;5034996;28;20060;-82
2023/11/28 03:22:15;;;;;;;12.83;9.17;;;3.30;99.90;;;;;;5024388;28;20045;-81
2023/11/28 03:24:42;;;;;;;11.83;8.17;;;3.30;99.90;;;;;;5021665;28;20043;-81
2023/11/28 03:27:08;;;;;;;12.23;8.20;;;3.30;99.90;;;;;;5009025;28;20113;-83
2023/11/28 03:29:34;;;;;;;13.07;7.50;;;3.30;99.90;;;;;;5023576;28;20056;-82
2023/11/28 03:32:00;;;;;;;11.23;7.43;;;3.30;99.90;;;;;;5034033;28;20037;-82
2023/11/28 03:34:27;;;;;;;12.73;7.70;;;3.30;99.90;;;;;;5023698;28;20542;-80
2023/11/28 03:36:53;;;;;;;10.27;6.53;;;3.30;99.90;;;;;;5040723;28;20021;-82
2023/11/28 03:39:19;;;;;;;9.77;5.80;;;3.30;99.90;;;;;;5033874;28;20028;-82
2023/11/28 03:41:48;;;;;;;10.37;5.60;;;3.20;99.90;;;;;;5033169;28;20030;-82
2023/11/28 03:44:13;;;;;;;9.70;6.20;;;3.30;99.90;;;;;;5016895;28;20030;-81
2023/11/28 03:46:39;;;;;;;8.77;4.80;;;3.20;99.90;;;;;;5033718;28;20113;-81
2023/11/28 03:49:05;;;;;;;8.43;5.17;;;3.20;99.90;;;;;;5026235;28;20112;-82
2023/11/28 03:51:30;;;;;;;8.90;5.00;;;3.10;99.90;;;;;;5033696;28;20037;-82
2023/11/28 03:53:56;;;;;;;7.23;4.03;;;3.00;99.90;;;;;;5015531;28;20517;-84
2023/11/28 03:56:22;;;;;;;7.53;3.87;;;3.00;99.90;;;;;;4996204;28;20076;-83
2023/11/28 03:58:49;;;;;;;7.23;3.57;;;2.90;99.80;;;;;;5025287;28;20030;-83
2023/11/28 04:01:15;;;;;;;8.27;4.43;;;2.80;99.90;;;;;;5033199;28;20053;-83
2023/11/28 04:03:40;;;;;;;7.17;3.97;;;2.80;99.70;;;;;;5023838;28;20064;-83
2023/11/28 04:06:08;;;;;;;7.47;3.30;;;2.70;99.60;;;;;;5016044;28;20049;-82
2023/11/28 04:08:33;;;;;;;6.90;3.33;;;2.60;99.50;;;;;;5012267;28;20026;-82
2023/11/28 04:10:59;;;;;;;8.53;3.10;;;2.60;99.40;;;;;;5023477;28;20030;-83
2023/11/28 04:13:26;;;;;;;5.73;2.60;;;2.50;99.20;;;;;;5023745;28;20067;-83
2023/11/28 04:15:53;;;;;;;6.90;2.57;;;2.40;99.30;;;;;;5025114;28;20021;-83
2023/11/28 04:18:18;;;;;;;5.93;2.17;;;2.30;99.20;;;;;;5026075;28;20041;-82
2023/11/28 04:20:44;;;;;;;5.10;2.10;;;2.30;99.10;;;;;;5022771;28;20033;-83
2023/11/28 04:23:10;;;;;;;4.83;2.10;;;2.30;99.20;;;;;;5032548;28;20049;-83
2023/11/28 04:25:35;;;;;;;4.57;1.93;;;2.20;99.20;;;;;;5021068;28;20030;-82
2023/11/28 04:28:01;;;;;;;4.07;1.67;;;2.10;99.10;;;;;;5033169;28;20030;-85
2023/11/28 04:30:27;;;;;;;5.80;2.27;;;2.10;99.40;;;;;;5020161;28;20084;-81
2023/11/28 04:32:52;;;;;;;4.37;1.90;;;2.20;99.20;;;;;;5005805;28;20036;-84
2023/11/28 04:35:19;;;;;;;5.43;1.80;;;2.00;99.10;;;;;;5021703;28;20018;-83
2023/11/28 04:37:45;;;;;;;6.30;1.67;;;1.90;99.00;;;;;;5032904;28;20030;-83
2023/11/28 04:40:11;;;;;;;5.70;2.23;;;1.90;99.50;;;;;;5021911;28;20029;-85
2023/11/28 04:42:38;;;;;;;5.87;1.87;;;1.90;99.30;;;;;;5006199;28;20343;-81
2023/11/28 04:45:04;;;;;;;4.07;1.40;;;1.80;99.20;;;;;;5032867;28;20022;-84
2023/11/28 04:47:30;;;;;;;3.77;1.70;;;1.80;99.50;;;;;;5020614;28;20029;-80
2023/11/28 04:49:55;;;;;;;5.37;2.20;;;1.80;99.40;;;;;;5022941;28;20543;-81
2023/11/28 04:52:21;;;;;;;6.33;1.97;;;1.70;99.40;;;;;;5030955;28;20512;-80
2023/11/28 04:54:46;;;;;;;3.70;1.50;;;1.80;99.60;;;;;;5032773;28;20054;-80
2023/11/28 04:57:12;;;;;;;4.53;1.90;;;1.70;99.60;;;;;;5033286;28;20030;-80
2023/11/28 04:59:38;;;;;;;4.87;2.10;;;1.70;99.80;;;;;;5029790;28;20030;-80
2023/11/28 05:02:03;;;;;;;4.10;1.90;;;1.70;99.90;;;;;;5022183;28;20032;-79
2023/11/28 05:04:29;;;;;;;3.40;2.00;;;1.60;99.90;;;;;;5021165;28;20034;-80
2023/11/28 05:06:55;;;;;;;4.83;2.20;;;1.60;99.90;;;;;;5033666;28;20123;-79
2023/11/28 05:09:20;;;;;;;4.97;2.33;;;1.60;99.90;;;;;;5031633;28;20057;-79
2023/11/28 05:11:46;;;;;;;4.73;2.13;;;1.60;99.90;;;;;;5020656;28;20034;-79
2023/11/28 05:14:12;;;;;;;4.77;1.83;;;1.60;99.90;;;;;;5026457;28;20058;-79
2023/11/28 05:16:38;;;;;;;4.40;1.83;;;1.50;99.90;;;;;;5020548;28;20018;-79
2023/11/28 05:19:05;;;;;;;5.90;2.83;;;1.50;99.90;;;;;;5030758;28;20033;-80
2023/11/28 05:21:31;;;;;;;5.10;2.33;;;1.50;99.90;;;;;;5022896;28;20442;-80
2023/11/28 05:23:57;;;;;;;6.43;2.50;;;1.50;99.90;;;;;;5024051;28;20111;-83
2023/11/28 05:26:22;;;;;;;7.63;2.63;;;1.50;99.90;;;;;;5007586;28;20089;-82
2023/11/28 05:28:48;;;;;;;5.23;2.40;;;1.50;99.90;;;;;;5021072;28;20029;-83
2023/11/28 05:31:14;;;;;;;4.50;2.10;;;1.50;99.90;;;;;;5032564;28;20044;-82
2023/11/28 05:33:40;;;;;;;5.23;2.30;;;1.40;99.90;;;;;;5032422;28;20025;-81
2023/11/28 05:36:09;;;;;;;7.00;2.73;;;1.50;99.90;;;;;;5034146;28;20022;-81
2023/11/28 05:38:34;;;;;;;6.50;2.27;;;1.50;99.90;;;;;;5020310;28;20044;-82
2023/11/28 05:41:01;;;;;;;5.87;2.37;;;1.50;99.90;;;;;;5027752;28;20077;-82
2023/11/28 05:43:31;;;;;;;5.40;2.73;;;1.50;99.90;;;;;;5033231;28;20053;-82
2023/11/28 05:45:57;;;;;;;5.50;2.60;;;1.60;99.90;;;;;;5027460;28;20026;-81
2023/11/28 05:48:23;;;;;;;6.47;2.80;;;1.50;99.90;;;;;;5020745;28;20029;-81
2023/11/28 05:50:49;;;;;;;5.47;2.50;;;1.50;99.90;;;;;;5019983;28;20030;-81
2023/11/28 05:53:15;;;;;;;5.37;2.40;;;1.50;99.90;;;;;;5031594;28;20478;-83
2023/11/28 05:55:41;;;;;;;7.70;2.70;;;1.50;99.90;;;;;;5033350;28;20029;-84
2023/11/28 05:58:07;;;;;;;7.10;2.57;;;1.50;99.90;;;;;;5031052;28;20619;-83
2023/11/28 06:00:34;;;;;;;5.53;2.63;;;1.50;99.90;;;;;;5016448;28;20025;-83
2023/11/28 06:03:00;;;;;;;6.83;2.70;;;1.50;99.90;;;;;;5031435;28;20072;-84
2023/11/28 06:05:25;;;;;;;6.70;2.37;;;1.50;99.90;;;;;;5013185;28;20033;-84
2023/11/28 06:07:52;;;;;;;5.23;2.37;;;1.40;99.90;;;;;;5022076;28;20025;-84
2023/11/28 06:10:18;;;;;;;6.47;2.80;;;1.50;99.90;;;;;;5022807;28;20037;-83
2023/11/28 06:12:44;;;;;;;7.97;2.63;;;1.50;99.90;;;;;;5021915;28;20022;-83
2023/11/28 06:15:11;;;;;;;6.90;2.60;;;1.50;99.90;;;;;;5017414;28;20029;-84
2023/11/28 06:17:37;;;;;;;4.80;2.30;;;1.60;99.90;;;;;;5017578;28;20734;-84
2023/11/28 06:20:06;;;;;;;5.47;1.83;;;1.60;99.90;;;;;;5034145;28;20018;-84
2023/11/28 06:22:32;;;;;;;6.70;2.73;;;1.70;99.90;;;;;;5032271;28;20378;-84
2023/11/28 06:24:58;;;;;;;7.13;2.57;;;1.70;99.90;;;;;;5019009;28;20026;-82
2023/11/28 06:27:23;;;;;;;4.83;2.03;;;1.80;99.90;;;;;;5021041;28;20387;-83
2023/11/28 06:29:49;;;;;;;3.90;2.00;;;1.80;99.90;;;;;;5015099;28;20033;-84
2023/11/28 06:32:16;;;;;;;6.37;2.47;;;1.90;99.90;;;;;;5037853;28;20043;-84
2023/11/28 06:34:42;;;;;;;4.70;2.17;;;1.90;99.90;;;;;;5009882;28;20068;-84
2023/11/28 06:37:08;;;;;;;6.03;2.60;;;1.90;99.90;;;;;;5021713;28;20022;-85
2023/11/28 06:39:34;;;;;;;5.87;2.10;;;1.90;99.90;;;;;;5029311;28;20052;-84
2023/11/28 06:42:00;;;;;;;4.77;2.27;;;1.90;99.90;;;;;;5033592;28;20033;-84
2023/11/28 06:44:33;;;;;;;5.13;2.20;;;1.90;99.90;;;;;;5029390;28;20367;-83
2023/11/28 06:46:59;;;;;;;7.07;2.20;;;1.90;99.90;;;;;;5010491;28;20120;-83
2023/11/28 06:49:24;;;;;;;5.03;2.40;;;2.00;99.90;;;;;;5023368;28;20084;-83
2023/11/28 06:51:50;;;;;;;6.23;2.07;;;1.90;99.90;;;;;;5030775;28;20041;-84
2023/11/28 06:54:17;;;;;;;4.37;2.27;;;2.10;99.90;;;;;;5018626;28;20037;-84
2023/11/28 06:56:42;;;;;;;3.93;1.57;;;2.00;99.90;;;;;;5035986;28;20010;-84
2023/11/28 06:59:08;;;;;;;4.37;1.47;;;2.00;99.90;;;;;;5022133;28;20027;-85
2023/11/28 07:01:34;;;;;;;4.77;2.10;;;2.00;99.90;;;;;;5022856;28;20077;-84
2023/11/28 07:04:01;;;;;;;3.57;1.47;;;2.10;99.90;;;;;;5017546;28;20042;-84
2023/11/28 07:06:27;;;;;;;6.17;2.13;;;2.00;99.90;;;;;;5019787;28;20136;-83
2023/11/28 07:08:53;;;;;;;5.07;1.90;;;2.10;99.90;;;;;;5051068;28;20026;-84
2023/11/28 07:11:19;;;;;;;5.60;2.03;;;2.10;99.90;;;;;;5020236;28;20038;-84
2023/11/28 07:13:48;;;;;;;4.60;1.83;;;2.20;99.90;;;;;;5033915;28;20030;-84
2023/11/28 07:16:15;;;;;;;4.57;1.90;;;2.10;99.90;;;;;;5049266;28;20053;-83
2023/11/28 07:18:41;;;;;;;3.10;1.43;;;2.20;99.90;;;;;;5015379;28;20023;-83
2023/11/28 07:21:07;;;;;;;6.13;2.20;;;2.20;99.90;;;;;;5030931;28;20018;-84
2023/11/28 07:23:34;;;;;;;3.87;1.87;;;2.20;99.90;;;;;;5015159;28;20018;-84
2023/11/28 07:26:00;;;;;;;6.70;2.37;;;2.20;99.90;;;;;;5018649;28;20062;-83
2023/11/28 07:28:27;;;;;;;5.23;1.93;;;2.30;99.90;;;;;;5020932;28;20479;-83
2023/11/28 07:30:53;;;;;;;3.63;1.87;;;2.30;99.90;;;;;;5017549;28;20030;-83
2023/11/28 07:33:18;;;;;;;8.90;1.90;;;2.30;99.90;;;;;;5020269;28;20030;-83
2023/11/28 07:35:44;;;;;;;6.27;2.10;;;2.40;99.90;;;;;;5020560;28;20022;-84
2023/11/28 07:38:10;;;;;;;4.23;1.90;;;2.40;99.90;;;;;;5018650;28;20032;-83
2023/11/28 07:40:37;;;;;;;3.73;1.63;;;2.40;99.90;;;;;;5024119;28;20041;-83
2023/11/28 07:43:04;;;;;;;5.70;2.00;;;2.40;99.90;;;;;;5022482;28;20109;-83
2023/11/28 07:45:30;;;;;;;4.13;1.53;;;2.40;99.90;;;;;;5024467;28;20030;-83
2023/11/28 07:47:57;;;;;;;4.43;1.70;;;2.40;99.90;;;;;;5023505;28;20058;-82
2023/11/28 07:50:23;;;;;;;4.07;1.70;;;2.50;99.90;;;;;;5054940;28;20026;-83
2023/11/28 07:52:49;;;;;;;4.97;1.60;;;2.50;99.90;;;;;;5032967;28;20036;-83
2023/11/28 07:55:16;;;;;;;6.00;1.70;;;2.50;99.90;;;;;;5042481;28;20534;-84
2023/11/28 07:57:41;;;;;;;3.60;1.40;;;2.50;99.90;;;;;;5044596;28;20025;-84
2023/11/28 08:00:07;;;;;;;4.03;1.70;;;2.50;99.90;;;;;;5042297;28;20025;-84
2023/11/28 08:02:37;;;;;;;3.47;1.33;;;2.50;99.90;;;;;;5044373;28;20026;-84
2023/11/28 08:05:04;;;;;;;3.23;1.67;;;2.50;99.90;;;;;;5062026;28;20045;-84
2023/11/28 08:07:33;;;;;;;3.20;1.27;;;2.60;99.90;;;;;;5045817;28;20025;-84
2023/11/28 08:10:03;;;;;;;5.30;1.37;;;2.60;99.90;;;;;;5050758;28;20116;-83
2023/11/28 08:12:28;;;;;;;2.90;1.17;;;2.70;99.90;;;;;;5017419;28;20034;-84
2023/11/28 08:14:54;;;;;;;4.57;1.77;;;2.70;99.90;;;;;;5016797;28;20037;-84
2023/11/28 08:17:20;;;;;;;4.17;1.30;;;2.70;99.90;;;;;;5022494;28;20029;-84
2023/11/28 08:19:47;;;;;;;5.27;1.53;;;2.80;99.90;;;;;;5022727;28;20061;-84
2023/11/28 08:22:13;;;;;;;4.00;1.57;;;2.80;99.90;;;;;;5021024;28;20025;-82
2023/11/28 08:24:38;;;;;;;3.37;1.50;;;2.80;99.90;;;;;;5023346;28;20026;-83
2023/11/28 08:27:05;;;;;;;3.97;1.53;;;2.80;99.90;;;;;;5023606;28;20022;-82
2023/11/28 08:29:30;;;;;;;2.70;1.17;;;2.90;99.90;;;;;;5020799;28;20014;-82
2023/11/28 08:31:58;;;;;;;5.37;0.83;;;2.90;99.90;;;;;;5022612;28;20053;-82
2023/11/28 08:34:24;;;;;;;3.40;1.30;;;2.90;99.90;;;;;;5020509;28;20034;-82
2023/11/28 08:36:51;;;;;;;3.43;1.30;;;2.80;99.90;;;;;;5023732;28;20022;-83
2023/11/28 08:39:17;;;;;;;5.40;1.10;;;2.90;99.90;;;;;;5004565;28;20041;-84
2023/11/28 08:41:43;;;;;;;2.03;0.90;;;2.80;99.90;;;;;;5022776;28;20025;-84
2023/11/28 08:44:09;;;;;;;4.00;0.70;;;2.80;99.90;;;;;;5021562;28;20026;-84
2023/11/28 08:46:37;;;;;;;2.50;1.10;;;2.80;99.90;;;;;;5022274;28;20014;-84
2023/11/28 08:49:03;;;;;;;2.60;1.00;;;2.70;99.90;;;;;;5022395;28;20720;-84
2023/11/28 08:51:29;;;;;;;4.30;1.20;;;2.70;99.90;;;;;;5018518;28;20423;-84
2023/11/28 08:53:55;;;;;;;2.27;0.97;;;2.60;99.90;;;;;;5022224;28;20021;-84
2023/11/28 08:56:23;;;;;;;2.90;0.90;;;2.60;99.90;;;;;;5021681;28;20029;-83
2023/11/28 08:58:49;;;;;;;3.00;1.17;;;2.60;99.90;;;;;;5021647;28;20459;-84
2023/11/28 09:01:14;;;;;;;2.37;0.97;;;2.70;99.90;;;;;;5021238;28;20060;-82
2023/11/28 09:03:40;;;;;;;5.80;2.03;;;2.60;99.90;;;;;;5003997;28;20609;-84
2023/11/28 09:06:07;;;;;;;2.20;0.87;;;2.60;99.90;;;;;;5022912;28;20053;-85
2023/11/28 09:08:33;;;;;;;2.93;1.00;;;2.70;99.90;;;;;;5021007;28;20030;-84
2023/11/28 09:10:59;;;;;;;3.67;1.00;;;2.70;99.90;;;;;;5021950;28;20097;-84
2023/11/28 09:13:24;;;;;;;5.97;1.10;;;2.60;99.90;;;;;;5021258;28;20026;-85
2023/11/28 09:15:50;;;;;;;4.80;1.00;;;2.70;99.90;;;;;;5021358;28;20029;-84
2023/11/28 09:18:16;;;;;;;4.77;1.30;;;2.80;99.90;;;;;;5004561;28;20052;-84
2023/11/28 09:20:42;;;;;;;1.97;0.90;;;2.90;99.90;;;;;;5021330;28;20018;-84
2023/11/28 09:23:07;;;;;;;2.93;1.23;;;3.00;99.90;;;;;;5022601;28;20034;-84
2023/11/28 09:25:33;;;;;;;3.43;1.30;;;3.30;99.90;;;;;;5020944;28;20049;-84
2023/11/28 09:28:00;;;;;;;5.13;1.40;;;3.60;99.90;;;;;;5022849;28;20046;-83
2023/11/28 09:30:25;;;;;;;4.60;2.20;;;4.00;99.90;;;;;;5019324;28;20034;-84
2023/11/28 09:32:51;;;;;;;3.03;1.00;;;4.50;99.90;;;;;;5021201;28;20022;-84
2023/11/28 09:35:17;;;;;;;3.90;1.00;;;5.00;99.90;;;;;;5021377;28;20483;-84
2023/11/28 09:37:43;;;;;;;1.67;0.70;;;5.70;99.90;;;;;;5021755;28;20069;-84
2023/11/28 09:40:09;;;;;;;1.47;0.60;;;6.50;99.90;;;;;;5022329;28;20030;-84
2023/11/28 09:42:38;;;;;;;1.40;0.47;;;7.30;99.90;;;;;;5020418;28;20026;-84
2023/11/28 09:45:05;;;;;;;3.17;0.47;;;8.00;99.90;;;;;;5031340;28;20430;-84
2023/11/28 09:47:38;;;;;;;2.00;0.50;;;8.80;99.90;;;;;;5044009;28;20092;-83
2023/11/28 09:50:05;;;;;;;2.05;0.68;;;9.50;99.90;;;;;;5061231;28;20049;-84
2023/11/28 09:52:35;;;;;;;0.85;0.43;;;10.20;99.90;;;;;;5061236;28;20367;-83
2023/11/28 09:55:01;;;;;;;2.05;0.70;;;10.80;99.90;;;;;;5060866;28;20021;-83
2023/11/28 09:57:34;;;;;;;1.00;0.45;;;11.50;99.90;;;;;;5043968;28;20055;-85
2023/11/28 10:00:01;;;;;;;1.13;0.43;;;12.10;99.90;;;;;;5041883;28;20021;-85
2023/11/28 10:02:30;;;;;;;1.15;0.50;;;12.60;99.90;;;;;;5043391;28;20021;-82
2023/11/28 10:04:56;;;;;;;1.40;0.40;;;13.10;99.90;;;;;;5060281;28;20045;-83
2023/11/28 10:07:29;;;;;;;2.30;0.60;;;13.50;99.90;;;;;;5033842;28;20025;-85
2023/11/28 10:09:56;;;;;;;1.65;0.60;;;13.90;99.90;;;;;;5023344;28;20060;-84
2023/11/28 10:12:22;;;;;;;1.58;0.40;;;14.10;98.20;;;;;;5022482;28;20037;-85
2023/11/28 10:14:47;;;;;;;1.70;0.60;;;14.10;96.60;;;;;;5023924;28;20021;-84
2023/11/28 10:17:15;;;;;;;1.90;0.45;;;14.00;94.50;;;;;;5021579;28;20053;-84
2023/11/28 10:19:44;;;;;;;3.60;0.68;;;13.90;93.30;;;;;;5023715;28;20029;-85
2023/11/28 10:22:10;;;;;;;1.10;0.55;;;13.90;91.90;;;;;;5040155;28;20022;-83
2023/11/28 10:24:37;;;;;;;2.03;0.80;;;13.90;90.90;;;;;;5041196;28;20060;-85
2023/11/28 10:27:03;;;;;;;2.03;0.70;;;13.80;89.50;;;;;;5023407;28;20033;-84
2023/11/28 10:29:29;;;;;;;1.80;0.70;;;13.60;87.40;;;;;;5039978;28;20017;-84
2023/11/28 10:31:55;;;;;;;1.45;0.70;;;13.40;85.90;;;;;;5041488;28;20033;-84
2023/11/28 10:34:21;;;;;;;1.92;0.65;;;13.20;84.30;;;;;;5021638;28;20029;-84
2023/11/28 10:36:48;;;;;;;1.55;0.60;;;13.10;83.30;;;;;;5041367;28;20072;-84
2023/11/28 10:39:18;;;;;;;1.35;0.60;;;13.00;81.90;;;;;;5022103;28;20092;-84
2023/11/28 10:41:44;;;;;;;2.97;0.70;;;13.00;80.80;;;;;;5040606;28;20502;-84
2023/11/28 10:44:10;;;;;;;2.08;0.70;;;13.00;80.60;;;;;;5040914;28;20026;-84
2023/11/28 10:46:38;;;;;;;2.72;0.68;;;13.10;80.40;;;;;;5039799;28;20037;-84
2023/11/28 10:49:05;;;;;;;2.20;0.77;;;13.20;79.00;;;;;;5023536;28;20025;-85
2023/11/28 10:51:33;;;;;;;2.28;0.80;;;13.40;78.50;;;;;;5039271;28;20057;-82
2023/11/28 10:54:07;;;;;;;2.75;0.68;;;13.70;77.60;;;;;;5041363;28;20109;-84
2023/11/28 10:56:47;;;;;;;1.63;0.70;;;13.90;76.40;;;;;;5021893;28;20041;-85
2023/11/28 10:59:34;;;;;;;2.03;0.80;;;13.90;75.20;;;;;;5022061;28;20044;-84
2023/11/28 11:02:01;;;;;;;1.50;0.60;;;13.70;74.10;;;;;;5041178;28;20025;-82
2023/11/28 11:04:31;;;;;;;2.63;0.77;;;13.60;74.00;;;;;;5038941;28;20050;-84
2023/11/28 11:06:57;;;;;;;2.95;1.08;;;13.50;73.30;;;;;;5023318;28;20026;-84
2023/11/28 11:09:23;;;;;;;2.92;0.68;;;13.50;72.60;;;;;;5039656;28;20017;-84
2023/11/28 11:11:51;;;;;;;2.00;0.80;;;13.40;72.30;;;;;;5040542;28;20095;-83
2023/11/28 11:14:25;;;;;;;2.55;0.80;;;13.30;71.30;;;;;;5042446;28;20068;-84
2023/11/28 11:17:32;;;;;;;2.88;1.10;;;13.10;71.50;;;;;;5043302;28;20030;-84
2023/11/28 11:20:00;;;;;;;2.83;0.75;;;12.80;70.70;;;;;;5044398;28;20524;-84
2023/11/28 11:22:30;;;;;;;2.00;0.80;;;12.60;69.90;;;;;;5043757;28;20036;-84
2023/11/28 11:24:57;;;;;;;2.45;0.90;;;12.50;68.90;;;;;;5043820;28;20096;-84
2023/11/28 11:27:23;;;;;;;1.63;0.60;;;12.30;68.20;;;;;;5044826;28;20030;-83
2023/11/28 11:29:50;;;;;;;1.85;0.55;;;12.40;67.80;;;;;;5042544;28;20026;-84
2023/11/28 11:32:16;;;;;;;1.70;0.60;;;12.40;68.60;;;;;;5044803;28;20030;-84
2023/11/28 11:34:44;;;;;;;1.48;0.52;;;12.50;67.70;;;;;;5043039;28;20021;-84
2023/11/28 11:37:14;;;;;;;3.05;0.90;;;12.50;67.50;;;;;;5026667;28;20025;-84
2023/11/28 11:39:42;;;;;;;1.33;0.60;;;12.50;66.40;;;;;;5043689;28;20036;-83
2023/11/28 11:42:11;;;;;;;1.75;0.70;;;12.20;65.10;;;;;;5025372;28;20014;-84
2023/11/28 11:44:41;;;;;;;3.47;0.88;;;12.00;65.80;;;;;;5026260;28;20025;-84
2023/11/28 11:47:16;;;;;;;2.75;0.77;;;12.00;66.30;;;;;;5024537;28;20537;-85
2023/11/28 11:49:43;;;;;;;1.38;0.63;;;12.10;66.30;;;;;;5026541;28;20101;-84
2023/11/28 11:52:13;;;;;;;2.50;0.60;;;12.00;65.40;;;;;;5043054;28;20038;-83
2023/11/28 11:54:43;;;;;;;2.95;0.70;;;11.80;64.80;;;;;;5025951;28;20030;-83
2023/11/28 11:57:10;;;;;;;1.48;0.73;;;11.50;64.40;;;;;;5043846;28;20105;-83
2023/11/28 11:59:36;;;;;;;1.55;0.55;;;11.70;66.30;;;;;;5024009;28;20022;-83
2023/11/28 12:02:02;;;;;;;2.83;0.50;;;12.20;67.00;;;;;;5026621;28;20079;-84
2023/11/28 12:04:28;;;;;;;1.77;0.68;;;12.60;66.10;;;;;;5042244;28;20038;-83
2023/11/28 12:07:07;;;;;;;6.00;0.60;;;12.80;65.20;;;;;;5044111;28;20026;-84
2023/11/28 12:09:34;;;;;;;2.10;0.82;;;12.60;62.60;;;;;;5024596;28;20017;-83
2023/11/28 12:12:00;;;;;;;3.22;0.60;;;12.50;63.70;;;;;;5042886;28;20051;-84
2023/11/28 12:14:26;;;;;;;1.35;0.50;;;12.60;64.70;;;;;;5026049;28;20541;-84
2023/11/28 12:16:53;;;;;;;1.85;0.40;;;12.60;64.20;;;;;;5041861;28;20021;-84
2023/11/28 12:19:19;;;;;;;2.40;0.50;;;12.50;63.70;;;;;;5026087;28;20048;-84
2023/11/28 12:21:46;;;;;;;3.65;0.85;;;12.30;62.50;;;;;;5041850;28;20150;-83
2023/11/28 12:24:12;;;;;;;2.63;0.55;;;11.80;60.70;;;;;;5043418;28;20021;-84
2023/11/28 12:26:39;;;;;;;2.25;0.63;;;11.30;61.50;;;;;;5024860;28;20406;-84
2023/11/28 12:29:06;;;;;;;1.80;0.57;;;11.00;61.40;;;;;;5024983;28;20060;-83
2023/11/28 12:31:33;;;;;;;2.03;0.70;;;10.40;61.40;;;;;;5025505;28;20034;-83
2023/11/28 12:33:59;;;;;;;2.43;0.90;;;10.10;62.40;;;;;;5041670;28;20033;-83
2023/11/28 12:36:27;;;;;;;3.03;1.20;;;9.70;62.70;;;;;;5043643;28;20025;-83
2023/11/28 12:39:00;;;;;;;2.40;0.80;;;9.50;63.10;;;;;;5023794;28;20087;-83
2023/11/28 12:41:34;;;;;;;2.73;1.00;;;9.30;63.50;;;;;;5043352;28;20021;-83
2023/11/28 12:44:00;;;;;;;2.03;0.80;;;9.20;64.00;;;;;;5042901;28;20040;-83
2023/11/28 12:46:26;;;;;;;1.70;0.67;;;9.10;64.50;;;;;;5024288;28;20021;-83
2023/11/28 12:48:52;;;;;;;4.37;0.80;;;9.10;64.40;;;;;;5025472;28;20033;-82
2023/11/28 12:51:17;;;;;;;3.17;0.60;;;9.20;64.40;;;;;;5023302;28;20033;-84